sensor_id;sensor_type;location;lat;lon;timestamp;P1;durP1;ratioP1;P2;durP2;ratioP2
10939;SDS011;5522;42.696;23.494;2024-02-21T00:01:22;4.90;;;4.40;;
10939;SDS011;5522;42.696;23.494;2024-02-21T00:03:50;6.28;;;5.38;;
10939;SDS011;5522;42.696;23.494;2024-02-21T00:06:17;5.90;;;5.13;;
10939;SDS011;5522;42.696;23.494;2024-02-21T00:08:44;6.53;;;4.82;;
10939;SDS011;5522;42.696;23.494;2024-02-21T00:11:11;5.63;;;4.80;;
10939;SDS011;5522;42.696;23.494;2024-02-21T00:13:38;5.78;;;4.85;;
10939;SDS011;5522;42.696;23.494;2024-02-21T00:16:04;8.13;;;5.32;;
10939;SDS011;5522;42.696;23.494;2024-02-21T00:18:31;4.97;;;4.47;;
10939;SDS011;5522;42.696;23.494;2024-02-21T00:21:00;5.15;;;4.65;;
10939;SDS011;5522;42.696;23.494;2024-02-21T00:23:28;5.05;;;4.55;;
10939;SDS011;5522;42.696;23.494;2024-02-21T00:25:56;6.25;;;4.57;;
10939;SDS011;5522;42.696;23.494;2024-02-21T00:28:22;5.38;;;3.85;;
10939;SDS011;5522;42.696;23.494;2024-02-21T00:30:49;5.57;;;3.78;;
10939;SDS011;5522;42.696;23.494;2024-02-21T00:33:18;5.88;;;4.30;;
10939;SDS011;5522;42.696;23.494;2024-02-21T00:35:45;4.00;;;3.58;;
10939;SDS011;5522;42.696;23.494;2024-02-21T00:38:13;4.43;;;3.95;;
10939;SDS011;5522;42.696;23.494;2024-02-21T00:40:40;5.50;;;4.38;;
10939;SDS011;5522;42.696;23.494;2024-02-21T00:43:07;3.53;;;3.20;;
10939;SDS011;5522;42.696;23.494;2024-02-21T00:45:34;5.10;;;3.88;;
10939;SDS011;5522;42.696;23.494;2024-02-21T00:48:01;3.45;;;3.20;;
10939;SDS011;5522;42.696;23.494;2024-02-21T00:50:27;3.85;;;3.53;;
10939;SDS011;5522;42.696;23.494;2024-02-21T00:52:54;3.25;;;2.95;;
10939;SDS011;5522;42.696;23.494;2024-02-21T00:55:22;3.40;;;3.10;;
10939;SDS011;5522;42.696;23.494;2024-02-21T00:57:49;3.97;;;3.42;;
10939;SDS011;5522;42.696;23.494;2024-02-21T01:00:16;3.47;;;3.17;;
10939;SDS011;5522;42.696;23.494;2024-02-21T01:07:54;4.05;;;3.72;;
10939;SDS011;5522;42.696;23.494;2024-02-21T01:10:22;10.25;;;6.78;;
10939;SDS011;5522;42.696;23.494;2024-02-21T01:12:49;15.85;;;8.98;;
10939;SDS011;5522;42.696;23.494;2024-02-21T01:15:16;21.98;;;13.02;;
10939;SDS011;5522;42.696;23.494;2024-02-21T01:17:43;30.60;;;15.82;;
10939;SDS011;5522;42.696;23.494;2024-02-21T01:22:45;14.18;;;7.57;;
10939;SDS011;5522;42.696;23.494;2024-02-21T01:25:12;8.15;;;6.18;;
10939;SDS011;5522;42.696;23.494;2024-02-21T01:27:40;5.22;;;4.40;;
10939;SDS011;5522;42.696;23.494;2024-02-21T01:30:08;6.60;;;4.35;;
10939;SDS011;5522;42.696;23.494;2024-02-21T01:32:35;4.50;;;3.50;;
10939;SDS011;5522;42.696;23.494;2024-02-21T01:35:02;4.68;;;4.28;;
10939;SDS011;5522;42.696;23.494;2024-02-21T01:37:29;6.55;;;4.60;;
10939;SDS011;5522;42.696;23.494;2024-02-21T01:39:56;4.55;;;4.20;;
10939;SDS011;5522;42.696;23.494;2024-02-21T01:42:23;4.38;;;3.97;;
10939;SDS011;5522;42.696;23.494;2024-02-21T01:44:51;6.75;;;3.85;;
10939;SDS011;5522;42.696;23.494;2024-02-21T01:47:18;3.90;;;3.53;;
10939;SDS011;5522;42.696;23.494;2024-02-21T01:49:45;2.72;;;2.53;;
10939;SDS011;5522;42.696;23.494;2024-02-21T01:52:12;3.95;;;3.50;;
10939;SDS011;5522;42.696;23.494;2024-02-21T01:54:42;3.55;;;3.30;;
10939;SDS011;5522;42.696;23.494;2024-02-21T01:57:09;4.63;;;3.40;;
10939;SDS011;5522;42.696;23.494;2024-02-21T01:59:36;4.20;;;3.17;;
10939;SDS011;5522;42.696;23.494;2024-02-21T02:02:05;4.07;;;3.78;;
10939;SDS011;5522;42.696;23.494;2024-02-21T02:04:32;5.63;;;3.85;;
10939;SDS011;5522;42.696;23.494;2024-02-21T02:07:00;4.10;;;3.13;;
10939;SDS011;5522;42.696;23.494;2024-02-21T02:09:31;3.63;;;3.30;;
10939;SDS011;5522;42.696;23.494;2024-02-21T02:11:58;3.20;;;2.90;;
10939;SDS011;5522;42.696;23.494;2024-02-21T02:14:25;4.07;;;3.72;;
10939;SDS011;5522;42.696;23.494;2024-02-21T02:16:52;4.07;;;3.63;;
10939;SDS011;5522;42.696;23.494;2024-02-21T02:19:20;4.05;;;3.42;;
10939;SDS011;5522;42.696;23.494;2024-02-21T02:21:50;4.07;;;3.30;;
10939;SDS011;5522;42.696;23.494;2024-02-21T02:24:23;6.05;;;4.28;;
10939;SDS011;5522;42.696;23.494;2024-02-21T02:26:51;3.53;;;3.22;;
10939;SDS011;5522;42.696;23.494;2024-02-21T02:29:18;4.95;;;3.45;;
10939;SDS011;5522;42.696;23.494;2024-02-21T02:31:44;4.15;;;3.75;;
10939;SDS011;5522;42.696;23.494;2024-02-21T02:34:11;5.28;;;3.08;;
10939;SDS011;5522;42.696;23.494;2024-02-21T02:36:38;7.75;;;6.85;;
10939;SDS011;5522;42.696;23.494;2024-02-21T02:39:05;20.58;;;14.98;;
10939;SDS011;5522;42.696;23.494;2024-02-21T02:41:35;9.60;;;7.97;;
10939;SDS011;5522;42.696;23.494;2024-02-21T02:44:02;11.18;;;6.90;;
10939;SDS011;5522;42.696;23.494;2024-02-21T02:46:29;25.52;;;12.90;;
10939;SDS011;5522;42.696;23.494;2024-02-21T02:48:56;53.67;;;20.67;;
10939;SDS011;5522;42.696;23.494;2024-02-21T02:51:23;48.67;;;20.23;;
10939;SDS011;5522;42.696;23.494;2024-02-21T02:53:50;29.50;;;13.48;;
10939;SDS011;5522;42.696;23.494;2024-02-21T02:56:16;13.02;;;7.25;;
10939;SDS011;5522;42.696;23.494;2024-02-21T02:58:45;8.80;;;5.13;;
10939;SDS011;5522;42.696;23.494;2024-02-21T03:01:11;5.72;;;4.70;;
10939;SDS011;5522;42.696;23.494;2024-02-21T03:03:38;4.55;;;4.10;;
10939;SDS011;5522;42.696;23.494;2024-02-21T03:06:05;6.63;;;4.88;;
10939;SDS011;5522;42.696;23.494;2024-02-21T03:08:32;14.80;;;9.35;;
10939;SDS011;5522;42.696;23.494;2024-02-21T03:10:59;12.95;;;8.93;;
10939;SDS011;5522;42.696;23.494;2024-02-21T03:13:26;18.48;;;12.68;;
10939;SDS011;5522;42.696;23.494;2024-02-21T03:15:54;16.95;;;10.30;;
10939;SDS011;5522;42.696;23.494;2024-02-21T03:18:21;12.55;;;8.32;;
10939;SDS011;5522;42.696;23.494;2024-02-21T03:20:47;11.43;;;7.70;;
10939;SDS011;5522;42.696;23.494;2024-02-21T03:23:14;8.00;;;6.03;;
10939;SDS011;5522;42.696;23.494;2024-02-21T03:25:41;8.18;;;6.05;;
10939;SDS011;5522;42.696;23.494;2024-02-21T03:28:08;7.53;;;5.13;;
10939;SDS011;5522;42.696;23.494;2024-02-21T03:30:35;6.15;;;4.88;;
10939;SDS011;5522;42.696;23.494;2024-02-21T03:33:03;4.82;;;4.43;;
10939;SDS011;5522;42.696;23.494;2024-02-21T03:35:30;5.60;;;5.00;;
10939;SDS011;5522;42.696;23.494;2024-02-21T03:37:57;5.18;;;4.70;;
10939;SDS011;5522;42.696;23.494;2024-02-21T03:40:23;5.53;;;4.65;;
10939;SDS011;5522;42.696;23.494;2024-02-21T03:42:50;5.95;;;5.03;;
10939;SDS011;5522;42.696;23.494;2024-02-21T03:45:17;5.85;;;5.25;;
10939;SDS011;5522;42.696;23.494;2024-02-21T03:47:44;5.82;;;5.25;;
10939;SDS011;5522;42.696;23.494;2024-02-21T03:50:12;5.88;;;5.28;;
10939;SDS011;5522;42.696;23.494;2024-02-21T03:52:39;8.23;;;5.93;;
10939;SDS011;5522;42.696;23.494;2024-02-21T03:55:06;7.53;;;6.45;;
10939;SDS011;5522;42.696;23.494;2024-02-21T03:57:33;21.20;;;11.93;;
10939;SDS011;5522;42.696;23.494;2024-02-21T04:00:00;54.88;;;32.72;;
10939;SDS011;5522;42.696;23.494;2024-02-21T04:02:28;30.52;;;19.85;;
10939;SDS011;5522;42.696;23.494;2024-02-21T04:04:55;32.47;;;22.85;;
10939;SDS011;5522;42.696;23.494;2024-02-21T04:07:23;18.83;;;14.13;;
10939;SDS011;5522;42.696;23.494;2024-02-21T04:09:50;24.80;;;16.75;;
10939;SDS011;5522;42.696;23.494;2024-02-21T04:12:17;21.27;;;14.98;;
10939;SDS011;5522;42.696;23.494;2024-02-21T04:14:44;17.70;;;13.35;;
10939;SDS011;5522;42.696;23.494;2024-02-21T04:17:10;14.23;;;10.07;;
10939;SDS011;5522;42.696;23.494;2024-02-21T04:19:37;12.93;;;9.45;;
10939;SDS011;5522;42.696;23.494;2024-02-21T04:22:04;9.93;;;8.27;;
10939;SDS011;5522;42.696;23.494;2024-02-21T04:24:32;14.57;;;11.20;;
10939;SDS011;5522;42.696;23.494;2024-02-21T04:26:59;14.40;;;11.10;;
10939;SDS011;5522;42.696;23.494;2024-02-21T04:29:25;17.73;;;12.77;;
10939;SDS011;5522;42.696;23.494;2024-02-21T04:31:53;13.15;;;10.50;;
10939;SDS011;5522;42.696;23.494;2024-02-21T04:34:19;15.52;;;11.18;;
10939;SDS011;5522;42.696;23.494;2024-02-21T04:36:46;17.15;;;12.73;;
10939;SDS011;5522;42.696;23.494;2024-02-21T04:39:13;15.40;;;10.38;;
10939;SDS011;5522;42.696;23.494;2024-02-21T04:41:41;10.00;;;8.48;;
10939;SDS011;5522;42.696;23.494;2024-02-21T04:44:08;10.07;;;9.02;;
10939;SDS011;5522;42.696;23.494;2024-02-21T04:46:35;18.25;;;13.75;;
10939;SDS011;5522;42.696;23.494;2024-02-21T04:49:01;16.10;;;12.82;;
10939;SDS011;5522;42.696;23.494;2024-02-21T04:51:28;18.17;;;13.38;;
10939;SDS011;5522;42.696;23.494;2024-02-21T04:53:55;24.23;;;17.70;;
10939;SDS011;5522;42.696;23.494;2024-02-21T04:56:22;24.85;;;18.10;;
10939;SDS011;5522;42.696;23.494;2024-02-21T04:58:50;23.23;;;16.38;;
10939;SDS011;5522;42.696;23.494;2024-02-21T05:01:16;21.02;;;16.10;;
10939;SDS011;5522;42.696;23.494;2024-02-21T05:03:43;21.75;;;15.43;;
10939;SDS011;5522;42.696;23.494;2024-02-21T05:06:10;20.50;;;14.32;;
10939;SDS011;5522;42.696;23.494;2024-02-21T05:08:37;19.80;;;14.55;;
10939;SDS011;5522;42.696;23.494;2024-02-21T05:11:04;13.55;;;10.32;;
10939;SDS011;5522;42.696;23.494;2024-02-21T05:13:30;9.38;;;6.65;;
10939;SDS011;5522;42.696;23.494;2024-02-21T05:15:59;7.15;;;5.65;;
10939;SDS011;5522;42.696;23.494;2024-02-21T05:18:27;9.52;;;5.95;;
10939;SDS011;5522;42.696;23.494;2024-02-21T05:20:54;7.00;;;6.25;;
10939;SDS011;5522;42.696;23.494;2024-02-21T05:23:20;6.80;;;6.20;;
10939;SDS011;5522;42.696;23.494;2024-02-21T05:25:49;12.05;;;7.32;;
10939;SDS011;5522;42.696;23.494;2024-02-21T05:28:16;10.10;;;6.60;;
10939;SDS011;5522;42.696;23.494;2024-02-21T05:30:43;9.00;;;6.85;;
10939;SDS011;5522;42.696;23.494;2024-02-21T05:33:11;10.82;;;7.65;;
10939;SDS011;5522;42.696;23.494;2024-02-21T05:35:38;9.23;;;6.85;;
10939;SDS011;5522;42.696;23.494;2024-02-21T05:38:04;9.82;;;6.95;;
10939;SDS011;5522;42.696;23.494;2024-02-21T05:40:36;8.15;;;6.70;;
10939;SDS011;5522;42.696;23.494;2024-02-21T05:43:03;7.32;;;6.35;;
10939;SDS011;5522;42.696;23.494;2024-02-21T05:45:30;11.02;;;7.28;;
10939;SDS011;5522;42.696;23.494;2024-02-21T05:47:56;13.30;;;8.20;;
10939;SDS011;5522;42.696;23.494;2024-02-21T05:50:25;14.73;;;9.70;;
10939;SDS011;5522;42.696;23.494;2024-02-21T05:52:52;15.93;;;9.48;;
10939;SDS011;5522;42.696;23.494;2024-02-21T05:55:19;14.85;;;9.52;;
10939;SDS011;5522;42.696;23.494;2024-02-21T05:57:46;13.05;;;9.45;;
10939;SDS011;5522;42.696;23.494;2024-02-21T06:00:13;13.25;;;9.02;;
10939;SDS011;5522;42.696;23.494;2024-02-21T06:02:41;11.15;;;8.55;;
10939;SDS011;5522;42.696;23.494;2024-02-21T06:05:08;13.65;;;9.45;;
10939;SDS011;5522;42.696;23.494;2024-02-21T06:07:36;13.90;;;9.55;;
10939;SDS011;5522;42.696;23.494;2024-02-21T06:10:03;14.02;;;9.68;;
10939;SDS011;5522;42.696;23.494;2024-02-21T06:12:31;17.35;;;10.95;;
10939;SDS011;5522;42.696;23.494;2024-02-21T06:14:58;15.05;;;10.52;;
10939;SDS011;5522;42.696;23.494;2024-02-21T06:17:25;15.77;;;10.85;;
10939;SDS011;5522;42.696;23.494;2024-02-21T06:19:51;18.80;;;14.10;;
10939;SDS011;5522;42.696;23.494;2024-02-21T06:22:18;32.42;;;17.98;;
10939;SDS011;5522;42.696;23.494;2024-02-21T06:24:46;17.95;;;11.68;;
10939;SDS011;5522;42.696;23.494;2024-02-21T06:27:13;15.23;;;9.88;;
10939;SDS011;5522;42.696;23.494;2024-02-21T06:29:41;13.43;;;9.25;;
10939;SDS011;5522;42.696;23.494;2024-02-21T06:32:08;12.73;;;9.60;;
10939;SDS011;5522;42.696;23.494;2024-02-21T06:34:34;30.13;;;17.90;;
10939;SDS011;5522;42.696;23.494;2024-02-21T06:37:01;17.77;;;12.35;;
10939;SDS011;5522;42.696;23.494;2024-02-21T06:39:29;25.88;;;16.95;;
10939;SDS011;5522;42.696;23.494;2024-02-21T06:41:57;26.88;;;16.20;;
10939;SDS011;5522;42.696;23.494;2024-02-21T06:44:24;7.85;;;6.35;;
10939;SDS011;5522;42.696;23.494;2024-02-21T06:46:51;8.90;;;6.57;;
10939;SDS011;5522;42.696;23.494;2024-02-21T06:49:17;6.00;;;5.43;;
10939;SDS011;5522;42.696;23.494;2024-02-21T06:51:44;6.05;;;5.45;;
10939;SDS011;5522;42.696;23.494;2024-02-21T06:54:11;7.32;;;6.32;;
10939;SDS011;5522;42.696;23.494;2024-02-21T06:56:39;7.82;;;7.13;;
10939;SDS011;5522;42.696;23.494;2024-02-21T06:59:08;9.35;;;7.80;;
10939;SDS011;5522;42.696;23.494;2024-02-21T07:01:35;10.50;;;8.20;;
10939;SDS011;5522;42.696;23.494;2024-02-21T07:04:02;9.23;;;7.97;;
10939;SDS011;5522;42.696;23.494;2024-02-21T07:06:29;11.05;;;8.45;;
10939;SDS011;5522;42.696;23.494;2024-02-21T07:08:56;11.55;;;10.25;;
10939;SDS011;5522;42.696;23.494;2024-02-21T07:11:23;15.45;;;11.63;;
10939;SDS011;5522;42.696;23.494;2024-02-21T07:13:50;14.15;;;9.48;;
10939;SDS011;5522;42.696;23.494;2024-02-21T07:16:20;13.45;;;9.55;;
10939;SDS011;5522;42.696;23.494;2024-02-21T07:18:46;17.17;;;13.40;;
10939;SDS011;5522;42.696;23.494;2024-02-21T07:21:13;14.65;;;10.70;;
10939;SDS011;5522;42.696;23.494;2024-02-21T07:23:40;11.60;;;9.98;;
10939;SDS011;5522;42.696;23.494;2024-02-21T07:26:08;12.68;;;10.55;;
10939;SDS011;5522;42.696;23.494;2024-02-21T07:28:35;11.10;;;9.25;;
10939;SDS011;5522;42.696;23.494;2024-02-21T07:31:02;12.95;;;9.30;;
10939;SDS011;5522;42.696;23.494;2024-02-21T07:33:31;14.43;;;10.85;;
10939;SDS011;5522;42.696;23.494;2024-02-21T07:35:57;12.75;;;10.38;;
10939;SDS011;5522;42.696;23.494;2024-02-21T07:38:24;14.90;;;10.57;;
10939;SDS011;5522;42.696;23.494;2024-02-21T07:40:51;13.57;;;10.10;;
10939;SDS011;5522;42.696;23.494;2024-02-21T07:43:18;21.05;;;16.50;;
10939;SDS011;5522;42.696;23.494;2024-02-21T07:45:47;14.65;;;10.90;;
10939;SDS011;5522;42.696;23.494;2024-02-21T07:48:14;11.13;;;9.60;;
10939;SDS011;5522;42.696;23.494;2024-02-21T07:50:42;10.52;;;9.18;;
10939;SDS011;5522;42.696;23.494;2024-02-21T07:53:09;10.60;;;9.02;;
10939;SDS011;5522;42.696;23.494;2024-02-21T07:55:36;11.48;;;10.23;;
10939;SDS011;5522;42.696;23.494;2024-02-21T07:58:03;11.10;;;9.70;;
10939;SDS011;5522;42.696;23.494;2024-02-21T08:00:30;10.15;;;8.93;;
10939;SDS011;5522;42.696;23.494;2024-02-21T08:02:58;12.80;;;9.40;;
10939;SDS011;5522;42.696;23.494;2024-02-21T08:05:25;10.18;;;9.15;;
10939;SDS011;5522;42.696;23.494;2024-02-21T08:07:53;10.73;;;9.63;;
10939;SDS011;5522;42.696;23.494;2024-02-21T08:10:20;12.70;;;10.07;;
10939;SDS011;5522;42.696;23.494;2024-02-21T08:12:47;13.45;;;10.15;;
10939;SDS011;5522;42.696;23.494;2024-02-21T08:15:14;12.85;;;10.13;;
10939;SDS011;5522;42.696;23.494;2024-02-21T08:17:41;11.93;;;10.55;;
10939;SDS011;5522;42.696;23.494;2024-02-21T08:20:09;13.32;;;9.63;;
10939;SDS011;5522;42.696;23.494;2024-02-21T08:22:37;12.18;;;10.00;;
10939;SDS011;5522;42.696;23.494;2024-02-21T08:25:06;10.38;;;9.38;;
10939;SDS011;5522;42.696;23.494;2024-02-21T08:27:33;12.52;;;10.50;;
10939;SDS011;5522;42.696;23.494;2024-02-21T08:29:59;12.73;;;10.27;;
10939;SDS011;5522;42.696;23.494;2024-02-21T08:32:26;12.48;;;11.07;;
10939;SDS011;5522;42.696;23.494;2024-02-21T08:34:55;12.40;;;10.93;;
10939;SDS011;5522;42.696;23.494;2024-02-21T08:37:22;15.80;;;13.98;;
10939;SDS011;5522;42.696;23.494;2024-02-21T08:39:49;21.38;;;16.48;;
10939;SDS011;5522;42.696;23.494;2024-02-21T08:42:17;20.75;;;13.82;;
10939;SDS011;5522;42.696;23.494;2024-02-21T08:44:44;14.35;;;12.02;;
10939;SDS011;5522;42.696;23.494;2024-02-21T08:47:11;14.25;;;11.65;;
10939;SDS011;5522;42.696;23.494;2024-02-21T08:49:38;12.65;;;11.30;;
10939;SDS011;5522;42.696;23.494;2024-02-21T08:52:05;13.25;;;11.13;;
10939;SDS011;5522;42.696;23.494;2024-02-21T08:54:32;14.02;;;11.05;;
10939;SDS011;5522;42.696;23.494;2024-02-21T08:56:59;11.20;;;10.07;;
10939;SDS011;5522;42.696;23.494;2024-02-21T08:59:27;10.18;;;9.27;;
10939;SDS011;5522;42.696;23.494;2024-02-21T09:01:54;8.75;;;7.95;;
10939;SDS011;5522;42.696;23.494;2024-02-21T09:04:20;10.05;;;9.05;;
10939;SDS011;5522;42.696;23.494;2024-02-21T09:06:47;9.27;;;8.52;;
10939;SDS011;5522;42.696;23.494;2024-02-21T09:09:14;9.50;;;8.70;;
10939;SDS011;5522;42.696;23.494;2024-02-21T09:11:41;8.77;;;7.95;;
10939;SDS011;5522;42.696;23.494;2024-02-21T09:14:07;9.02;;;8.23;;
10939;SDS011;5522;42.696;23.494;2024-02-21T09:16:35;10.98;;;9.88;;
10939;SDS011;5522;42.696;23.494;2024-02-21T09:19:02;13.30;;;9.90;;
10939;SDS011;5522;42.696;23.494;2024-02-21T09:21:29;11.00;;;10.00;;
10939;SDS011;5522;42.696;23.494;2024-02-21T09:23:56;13.68;;;11.73;;
10939;SDS011;5522;42.696;23.494;2024-02-21T09:26:23;14.43;;;12.95;;
10939;SDS011;5522;42.696;23.494;2024-02-21T09:28:49;13.25;;;11.85;;
10939;SDS011;5522;42.696;23.494;2024-02-21T09:31:16;11.93;;;10.73;;
10939;SDS011;5522;42.696;23.494;2024-02-21T09:33:45;10.00;;;9.10;;
10939;SDS011;5522;42.696;23.494;2024-02-21T09:36:11;9.98;;;8.98;;
10939;SDS011;5522;42.696;23.494;2024-02-21T09:38:39;13.15;;;9.43;;
10939;SDS011;5522;42.696;23.494;2024-02-21T09:41:08;9.93;;;8.75;;
10939;SDS011;5522;42.696;23.494;2024-02-21T09:43:42;8.80;;;7.57;;
10939;SDS011;5522;42.696;23.494;2024-02-21T09:46:12;8.02;;;7.22;;
10939;SDS011;5522;42.696;23.494;2024-02-21T09:48:48;7.15;;;6.55;;
10939;SDS011;5522;42.696;23.494;2024-02-21T09:51:26;7.72;;;7.03;;
10939;SDS011;5522;42.696;23.494;2024-02-21T09:53:57;7.00;;;6.40;;
10939;SDS011;5522;42.696;23.494;2024-02-21T09:56:24;6.95;;;6.28;;
10939;SDS011;5522;42.696;23.494;2024-02-21T09:58:51;7.10;;;6.50;;
10939;SDS011;5522;42.696;23.494;2024-02-21T10:01:18;6.13;;;5.53;;
10939;SDS011;5522;42.696;23.494;2024-02-21T10:03:46;8.77;;;6.70;;
10939;SDS011;5522;42.696;23.494;2024-02-21T10:06:16;8.07;;;7.28;;
10939;SDS011;5522;42.696;23.494;2024-02-21T10:08:42;7.68;;;6.43;;
10939;SDS011;5522;42.696;23.494;2024-02-21T10:11:21;7.35;;;6.57;;
10939;SDS011;5522;42.696;23.494;2024-02-21T10:14:03;6.93;;;6.32;;
10939;SDS011;5522;42.696;23.494;2024-02-21T10:16:30;5.30;;;4.93;;
10939;SDS011;5522;42.696;23.494;2024-02-21T10:19:00;7.50;;;6.20;;
10939;SDS011;5522;42.696;23.494;2024-02-21T10:21:28;5.93;;;5.43;;
10939;SDS011;5522;42.696;23.494;2024-02-21T10:23:55;5.95;;;5.28;;
10939;SDS011;5522;42.696;23.494;2024-02-21T10:26:22;7.55;;;6.78;;
10939;SDS011;5522;42.696;23.494;2024-02-21T10:28:50;8.00;;;6.95;;
10939;SDS011;5522;42.696;23.494;2024-02-21T10:31:22;8.68;;;6.82;;
10939;SDS011;5522;42.696;23.494;2024-02-21T10:33:53;8.65;;;7.85;;
10939;SDS011;5522;42.696;23.494;2024-02-21T10:36:23;7.97;;;7.13;;
10939;SDS011;5522;42.696;23.494;2024-02-21T10:38:51;8.93;;;8.13;;
10939;SDS011;5522;42.696;23.494;2024-02-21T10:41:19;7.07;;;6.40;;
10939;SDS011;5522;42.696;23.494;2024-02-21T10:43:49;10.88;;;8.98;;
10939;SDS011;5522;42.696;23.494;2024-02-21T10:46:20;6.95;;;6.35;;
10939;SDS011;5522;42.696;23.494;2024-02-21T10:48:48;5.97;;;5.50;;
10939;SDS011;5522;42.696;23.494;2024-02-21T10:51:33;6.43;;;5.82;;
10939;SDS011;5522;42.696;23.494;2024-02-21T10:54:02;6.70;;;6.10;;
10939;SDS011;5522;42.696;23.494;2024-02-21T10:56:39;10.13;;;9.07;;
10939;SDS011;5522;42.696;23.494;2024-02-21T10:59:08;10.68;;;8.88;;
10939;SDS011;5522;42.696;23.494;2024-02-21T11:01:36;7.85;;;7.05;;
10939;SDS011;5522;42.696;23.494;2024-02-21T11:04:04;6.03;;;5.50;;
10939;SDS011;5522;42.696;23.494;2024-02-21T11:06:35;5.50;;;5.07;;
10939;SDS011;5522;42.696;23.494;2024-02-21T11:09:04;5.55;;;5.20;;
10939;SDS011;5522;42.696;23.494;2024-02-21T11:11:35;5.22;;;4.82;;
10939;SDS011;5522;42.696;23.494;2024-02-21T11:14:04;10.95;;;9.80;;
10939;SDS011;5522;42.696;23.494;2024-02-21T11:16:35;8.80;;;8.00;;
10939;SDS011;5522;42.696;23.494;2024-02-21T11:19:04;6.85;;;6.22;;
10939;SDS011;5522;42.696;23.494;2024-02-21T11:21:36;5.90;;;4.97;;
10939;SDS011;5522;42.696;23.494;2024-02-21T11:24:04;5.22;;;4.80;;
10939;SDS011;5522;42.696;23.494;2024-02-21T11:26:33;5.18;;;4.82;;
10939;SDS011;5522;42.696;23.494;2024-02-21T11:29:01;6.57;;;6.07;;
10939;SDS011;5522;42.696;23.494;2024-02-21T11:31:38;10.45;;;6.53;;
10939;SDS011;5522;42.696;23.494;2024-02-21T11:34:08;5.55;;;5.20;;
10939;SDS011;5522;42.696;23.494;2024-02-21T11:36:39;6.65;;;5.72;;
10939;SDS011;5522;42.696;23.494;2024-02-21T11:39:17;5.57;;;4.85;;
10939;SDS011;5522;42.696;23.494;2024-02-21T11:41:45;7.43;;;6.85;;
10939;SDS011;5522;42.696;23.494;2024-02-21T11:44:13;5.30;;;5.00;;
10939;SDS011;5522;42.696;23.494;2024-02-21T11:46:39;5.15;;;4.75;;
10939;SDS011;5522;42.696;23.494;2024-02-21T11:49:06;5.63;;;5.20;;
10939;SDS011;5522;42.696;23.494;2024-02-21T11:51:34;3.13;;;3.03;;
10939;SDS011;5522;42.696;23.494;2024-02-21T11:54:02;3.30;;;1.92;;
10939;SDS011;5522;42.696;23.494;2024-02-21T11:56:30;1.75;;;1.65;;
10939;SDS011;5522;42.696;23.494;2024-02-21T11:58:58;1.27;;;1.17;;
10939;SDS011;5522;42.696;23.494;2024-02-21T12:01:25;2.38;;;1.38;;
10939;SDS011;5522;42.696;23.494;2024-02-21T12:03:52;1.80;;;1.67;;
10939;SDS011;5522;42.696;23.494;2024-02-21T12:06:20;1.20;;;1.20;;
10939;SDS011;5522;42.696;23.494;2024-02-21T12:08:47;1.10;;;1.00;;
10939;SDS011;5522;42.696;23.494;2024-02-21T12:11:21;0.80;;;0.80;;
10939;SDS011;5522;42.696;23.494;2024-02-21T12:13:58;1.30;;;1.30;;
10939;SDS011;5522;42.696;23.494;2024-02-21T12:16:27;1.25;;;1.15;;
10939;SDS011;5522;42.696;23.494;2024-02-21T12:18:55;3.40;;;2.65;;
10939;SDS011;5522;42.696;23.494;2024-02-21T12:21:25;2.13;;;2.03;;
10939;SDS011;5522;42.696;23.494;2024-02-21T12:23:53;3.95;;;3.05;;
10939;SDS011;5522;42.696;23.494;2024-02-21T12:26:22;2.40;;;2.20;;
10939;SDS011;5522;42.696;23.494;2024-02-21T12:28:49;4.88;;;2.97;;
10939;SDS011;5522;42.696;23.494;2024-02-21T12:31:15;4.63;;;4.22;;
10939;SDS011;5522;42.696;23.494;2024-02-21T12:33:42;1.73;;;1.63;;
10939;SDS011;5522;42.696;23.494;2024-02-21T12:36:10;3.22;;;2.92;;
10939;SDS011;5522;42.696;23.494;2024-02-21T12:38:36;11.38;;;4.50;;
10939;SDS011;5522;42.696;23.494;2024-02-21T12:41:03;10.95;;;6.07;;
10939;SDS011;5522;42.696;23.494;2024-02-21T12:43:31;11.68;;;6.30;;
10939;SDS011;5522;42.696;23.494;2024-02-21T12:45:59;3.95;;;3.50;;
10939;SDS011;5522;42.696;23.494;2024-02-21T12:48:26;7.65;;;5.72;;
10939;SDS011;5522;42.696;23.494;2024-02-21T12:50:54;4.90;;;3.38;;
10939;SDS011;5522;42.696;23.494;2024-02-21T12:53:24;3.08;;;2.53;;
10939;SDS011;5522;42.696;23.494;2024-02-21T12:55:51;2.60;;;2.40;;
10939;SDS011;5522;42.696;23.494;2024-02-21T12:58:18;2.92;;;1.80;;
10939;SDS011;5522;42.696;23.494;2024-02-21T13:00:48;1.73;;;1.30;;
10939;SDS011;5522;42.696;23.494;2024-02-21T13:03:14;1.63;;;1.52;;
10939;SDS011;5522;42.696;23.494;2024-02-21T13:05:41;6.68;;;4.45;;
10939;SDS011;5522;42.696;23.494;2024-02-21T13:08:08;3.65;;;3.40;;
10939;SDS011;5522;42.696;23.494;2024-02-21T13:10:37;4.70;;;3.45;;
10939;SDS011;5522;42.696;23.494;2024-02-21T13:13:03;4.97;;;3.83;;
10939;SDS011;5522;42.696;23.494;2024-02-21T13:15:30;3.28;;;3.05;;
10939;SDS011;5522;42.696;23.494;2024-02-21T13:17:59;5.43;;;4.28;;
10939;SDS011;5522;42.696;23.494;2024-02-21T13:20:25;6.78;;;4.50;;
10939;SDS011;5522;42.696;23.494;2024-02-21T13:22:54;9.23;;;5.82;;
10939;SDS011;5522;42.696;23.494;2024-02-21T13:25:21;5.20;;;4.50;;
10939;SDS011;5522;42.696;23.494;2024-02-21T13:27:47;8.18;;;6.30;;
10939;SDS011;5522;42.696;23.494;2024-02-21T13:30:14;9.10;;;7.53;;
10939;SDS011;5522;42.696;23.494;2024-02-21T13:32:43;7.38;;;6.25;;
10939;SDS011;5522;42.696;23.494;2024-02-21T13:35:12;10.45;;;7.28;;
10939;SDS011;5522;42.696;23.494;2024-02-21T13:37:40;6.72;;;6.00;;
10939;SDS011;5522;42.696;23.494;2024-02-21T13:40:07;6.45;;;5.70;;
10939;SDS011;5522;42.696;23.494;2024-02-21T13:42:35;5.40;;;4.88;;
10939;SDS011;5522;42.696;23.494;2024-02-21T13:45:02;9.20;;;7.88;;
10939;SDS011;5522;42.696;23.494;2024-02-21T13:47:30;35.17;;;23.45;;
10939;SDS011;5522;42.696;23.494;2024-02-21T13:49:57;10.57;;;5.53;;
10939;SDS011;5522;42.696;23.494;2024-02-21T13:52:25;8.80;;;6.30;;
10939;SDS011;5522;42.696;23.494;2024-02-21T13:54:52;6.93;;;5.25;;
10939;SDS011;5522;42.696;23.494;2024-02-21T13:57:19;4.45;;;4.05;;
10939;SDS011;5522;42.696;23.494;2024-02-21T13:59:46;5.18;;;4.78;;
10939;SDS011;5522;42.696;23.494;2024-02-21T14:02:13;4.40;;;4.10;;
10939;SDS011;5522;42.696;23.494;2024-02-21T14:04:39;5.50;;;4.80;;
10939;SDS011;5522;42.696;23.494;2024-02-21T14:07:07;5.00;;;4.45;;
10939;SDS011;5522;42.696;23.494;2024-02-21T14:09:35;4.88;;;4.47;;
10939;SDS011;5522;42.696;23.494;2024-02-21T14:12:02;8.90;;;4.63;;
10939;SDS011;5522;42.696;23.494;2024-02-21T14:14:33;8.82;;;5.40;;
10939;SDS011;5522;42.696;23.494;2024-02-21T14:17:01;4.32;;;3.97;;
10939;SDS011;5522;42.696;23.494;2024-02-21T14:19:28;9.82;;;6.53;;
10939;SDS011;5522;42.696;23.494;2024-02-21T14:21:55;10.80;;;8.57;;
10939;SDS011;5522;42.696;23.494;2024-02-21T14:24:22;8.90;;;7.05;;
10939;SDS011;5522;42.696;23.494;2024-02-21T14:26:51;6.25;;;5.40;;
10939;SDS011;5522;42.696;23.494;2024-02-21T14:29:17;5.95;;;4.90;;
10939;SDS011;5522;42.696;23.494;2024-02-21T14:31:44;5.80;;;5.20;;
10939;SDS011;5522;42.696;23.494;2024-02-21T14:34:11;7.22;;;5.63;;
10939;SDS011;5522;42.696;23.494;2024-02-21T14:36:38;8.40;;;7.50;;
10939;SDS011;5522;42.696;23.494;2024-02-21T14:39:05;10.50;;;7.55;;
10939;SDS011;5522;42.696;23.494;2024-02-21T14:41:32;4.22;;;3.83;;
10939;SDS011;5522;42.696;23.494;2024-02-21T14:44:01;5.03;;;3.67;;
10939;SDS011;5522;42.696;23.494;2024-02-21T14:46:31;3.70;;;3.40;;
10939;SDS011;5522;42.696;23.494;2024-02-21T14:48:58;3.85;;;3.15;;